SRV51Z GVAC-GOOY
Flight info
| Callsign | SRV51Z |
|---|---|
| Flight time | 0h 57m |
| Altitude | 33000 |
| Route | IRPOT1A POLMO DCT LUMPO UR976 ANITI |
| Aircraft | E195/M-SDE3GILORVW/S |
Departure
| Time | 2026-05-06 09:57 |
|---|---|
| Airport | Amílcar Cabral International Airport (GVAC) |
Arrival
| Time | 2026-05-06 10:54 |
|---|---|
| Airport | Léopold Sédar Senghor International Airport (GOOY) |
| Time | Latitude | Longitude | Altitude | Speed | Heading |
|---|---|---|---|---|---|
| 2026-05-06 09:40 | 16.73300 | -22.94492 | 199 ft | 0 kts | 90° |
| 2026-05-06 09:48 | 16.73300 | -22.94500 | 199 ft | 4 kts | 90° |
| 2026-05-06 09:49 | 16.73300 | -22.94510 | 189 ft | 4 kts | 92° |
| 2026-05-06 09:49 | 16.73302 | -22.94538 | 193 ft | 4 kts | 97° |
| 2026-05-06 09:49 | 16.73307 | -22.94565 | 199 ft | 4 kts | 108° |
| 2026-05-06 09:49 | 16.73318 | -22.94589 | 195 ft | 4 kts | 144° |
| 2026-05-06 09:50 | 16.73331 | -22.94595 | 203 ft | 1 kts | 180° |
| 2026-05-06 09:50 | 16.73333 | -22.94595 | 203 ft | 0 kts | 180° |
| 2026-05-06 09:52 | 16.73327 | -22.94595 | 205 ft | 2 kts | 180° |
| 2026-05-06 09:52 | 16.73311 | -22.94595 | 201 ft | 3 kts | 180° |
| 2026-05-06 09:52 | 16.73286 | -22.94595 | 198 ft | 4 kts | 180° |
| 2026-05-06 09:52 | 16.73252 | -22.94595 | 189 ft | 6 kts | 180° |
| 2026-05-06 09:53 | 16.73208 | -22.94595 | 197 ft | 7 kts | 180° |
| 2026-05-06 09:53 | 16.73155 | -22.94595 | 198 ft | 8 kts | 179° |
| 2026-05-06 09:53 | 16.73096 | -22.94603 | 194 ft | 9 kts | 208° |
| 2026-05-06 09:53 | 16.73054 | -22.94656 | 193 ft | 10 kts | 236° |
| 2026-05-06 09:54 | 16.72996 | -22.94691 | 190 ft | 11 kts | 182° |
| 2026-05-06 09:54 | 16.72918 | -22.94691 | 190 ft | 12 kts | 179° |
| 2026-05-06 09:54 | 16.72833 | -22.94690 | 190 ft | 13 kts | 179° |
| 2026-05-06 09:54 | 16.72742 | -22.94690 | 204 ft | 14 kts | 179° |
| 2026-05-06 09:55 | 16.72642 | -22.94689 | 191 ft | 15 kts | 180° |
| 2026-05-06 09:55 | 16.72534 | -22.94688 | 191 ft | 16 kts | 179° |
| 2026-05-06 09:55 | 16.72426 | -22.94703 | 195 ft | 15 kts | 226° |
| 2026-05-06 09:55 | 16.72405 | -22.94812 | 190 ft | 15 kts | 261° |
| 2026-05-06 09:56 | 16.72386 | -22.94888 | 193 ft | 5 kts | 321° |
| 2026-05-06 09:56 | 16.72396 | -22.94887 | 197 ft | 0 kts | 357° |
| 2026-05-06 09:56 | 16.72408 | -22.94888 | 190 ft | 16 kts | 358° |
| 2026-05-06 09:56 | 16.72785 | -22.94890 | 190 ft | 91 kts | 359° |
| 2026-05-06 09:57 | 16.73655 | -22.94896 | 203 ft | 156 kts | 0° |
| 2026-05-06 09:57 | 16.74908 | -22.94904 | 481 ft | 204 kts | 0° |
| 2026-05-06 09:57 | 16.76478 | -22.94910 | 851 ft | 237 kts | 360° |
| 2026-05-06 09:57 | 16.78061 | -22.94930 | 1466 ft | 220 kts | 0° |
| 2026-05-06 09:58 | 16.79548 | -22.94942 | 2535 ft | 212 kts | 0° |
| 2026-05-06 09:58 | 16.81051 | -22.94951 | 3416 ft | 225 kts | 356° |
| 2026-05-06 09:58 | 16.82695 | -22.94968 | 4118 ft | 250 kts | 357° |
| 2026-05-06 09:58 | 16.84509 | -22.94871 | 4978 ft | 272 kts | 9° |
| 2026-05-06 09:59 | 16.86224 | -22.93928 | 5932 ft | 289 kts | 43° |
| 2026-05-06 09:59 | 16.87291 | -22.92131 | 6952 ft | 297 kts | 71° |
| 2026-05-06 09:59 | 16.87590 | -22.89979 | 7792 ft | 308 kts | 88° |
| 2026-05-06 09:59 | 16.87576 | -22.87737 | 8154 ft | 307 kts | 93° |
| 2026-05-06 10:00 | 16.87499 | -22.85478 | 8138 ft | 311 kts | 93° |
| 2026-05-06 10:00 | 16.87412 | -22.83236 | 8154 ft | 307 kts | 93° |
| 2026-05-06 10:00 | 16.87333 | -22.81009 | 8082 ft | 307 kts | 93° |
| 2026-05-06 10:00 | 16.87254 | -22.78791 | 8021 ft | 304 kts | 92° |
| 2026-05-06 10:01 | 16.87148 | -22.76590 | 8317 ft | 306 kts | 100° |
| 2026-05-06 10:01 | 16.86401 | -22.74564 | 9275 ft | 304 kts | 124° |
| 2026-05-06 10:01 | 16.85185 | -22.72762 | 10302 ft | 306 kts | 129° |
| 2026-05-06 10:01 | 16.83883 | -22.70907 | 10880 ft | 325 kts | 128° |
| 2026-05-06 10:02 | 16.82561 | -22.68956 | 11717 ft | 331 kts | 128° |
| 2026-05-06 10:02 | 16.81234 | -22.66970 | 12660 ft | 334 kts | 128° |
| 2026-05-06 10:02 | 16.79900 | -22.64971 | 13603 ft | 337 kts | 128° |
| 2026-05-06 10:02 | 16.78548 | -22.62948 | 14451 ft | 342 kts | 128° |
| 2026-05-06 10:03 | 16.77170 | -22.60889 | 15265 ft | 349 kts | 128° |
| 2026-05-06 10:03 | 16.75767 | -22.58795 | 16064 ft | 355 kts | 128° |
| 2026-05-06 10:03 | 16.74339 | -22.56671 | 16855 ft | 361 kts | 128° |
| 2026-05-06 10:03 | 16.72885 | -22.54511 | 17616 ft | 366 kts | 128° |
| 2026-05-06 10:04 | 16.71424 | -22.52347 | 18337 ft | 372 kts | 128° |
| 2026-05-06 10:04 | 16.69922 | -22.50126 | 18946 ft | 377 kts | 128° |
| 2026-05-06 10:04 | 16.68398 | -22.47879 | 19557 ft | 382 kts | 128° |
| 2026-05-06 10:04 | 16.66853 | -22.45602 | 20163 ft | 387 kts | 128° |
| 2026-05-06 10:05 | 16.65284 | -22.43299 | 20774 ft | 391 kts | 128° |
| 2026-05-06 10:05 | 16.63697 | -22.40969 | 21373 ft | 396 kts | 128° |
| 2026-05-06 10:05 | 16.62088 | -22.38612 | 21980 ft | 401 kts | 128° |
| 2026-05-06 10:05 | 16.60460 | -22.36233 | 22554 ft | 406 kts | 128° |
| 2026-05-06 10:06 | 16.58809 | -22.33821 | 23109 ft | 410 kts | 128° |
| 2026-05-06 10:06 | 16.57139 | -22.31391 | 23635 ft | 415 kts | 128° |
| 2026-05-06 10:06 | 16.55458 | -22.28932 | 24085 ft | 419 kts | 127° |
| 2026-05-06 10:06 | 16.54021 | -22.26257 | 24497 ft | 426 kts | 117° |
| 2026-05-06 10:07 | 16.52826 | -22.23411 | 24910 ft | 430 kts | 116° |
| 2026-05-06 10:07 | 16.51638 | -22.20578 | 25308 ft | 434 kts | 117° |
| 2026-05-06 10:07 | 16.50412 | -22.17683 | 25704 ft | 438 kts | 117° |
| 2026-05-06 10:07 | 16.49167 | -22.14763 | 26105 ft | 442 kts | 117° |
| 2026-05-06 10:08 | 16.47909 | -22.11818 | 26503 ft | 446 kts | 118° |
| 2026-05-06 10:08 | 16.46641 | -22.08856 | 26897 ft | 450 kts | 118° |
| 2026-05-06 10:08 | 16.45359 | -22.05864 | 27269 ft | 454 kts | 118° |
| 2026-05-06 10:08 | 16.44064 | -22.02847 | 27631 ft | 458 kts | 118° |
| 2026-05-06 10:09 | 16.42775 | -21.99844 | 27986 ft | 461 kts | 118° |
| 2026-05-06 10:09 | 16.41459 | -21.96779 | 28331 ft | 465 kts | 119° |
| 2026-05-06 10:09 | 16.40132 | -21.93690 | 28669 ft | 468 kts | 119° |
| 2026-05-06 10:09 | 16.38795 | -21.90582 | 28996 ft | 472 kts | 119° |
| 2026-05-06 10:10 | 16.37448 | -21.87448 | 29304 ft | 475 kts | 119° |
| 2026-05-06 10:10 | 16.36094 | -21.84301 | 29595 ft | 478 kts | 119° |
| 2026-05-06 10:10 | 16.34729 | -21.81128 | 29893 ft | 481 kts | 119° |
| 2026-05-06 10:10 | 16.33354 | -21.77935 | 30163 ft | 484 kts | 120° |
| 2026-05-06 10:11 | 16.31990 | -21.74767 | 30422 ft | 486 kts | 120° |
| 2026-05-06 10:11 | 16.30603 | -21.71546 | 30694 ft | 488 kts | 120° |
| 2026-05-06 10:11 | 16.29215 | -21.68324 | 30973 ft | 489 kts | 120° |
| 2026-05-06 10:11 | 16.27821 | -21.65091 | 31239 ft | 490 kts | 120° |
| 2026-05-06 10:12 | 16.26471 | -21.61821 | 31492 ft | 495 kts | 116° |
| 2026-05-06 10:12 | 16.25298 | -21.58438 | 31743 ft | 497 kts | 115° |
| 2026-05-06 10:12 | 16.24118 | -21.55044 | 31982 ft | 498 kts | 116° |
| 2026-05-06 10:12 | 16.22924 | -21.51653 | 32207 ft | 500 kts | 116° |
| 2026-05-06 10:13 | 16.21721 | -21.48263 | 32481 ft | 499 kts | 116° |
| 2026-05-06 10:13 | 16.20516 | -21.44877 | 32807 ft | 498 kts | 116° |
| 2026-05-06 10:13 | 16.19312 | -21.41505 | 33171 ft | 496 kts | 117° |
| 2026-05-06 10:13 | 16.18095 | -21.38116 | 33146 ft | 504 kts | 117° |
| 2026-05-06 10:14 | 16.15602 | -21.31175 | 33159 ft | 517 kts | 116° |
| 2026-05-06 10:14 | 16.13075 | -21.24135 | 33040 ft | 520 kts | 116° |
| 2026-05-06 10:15 | 16.10537 | -21.17077 | 33038 ft | 521 kts | 116° |
| 2026-05-06 10:15 | 16.07994 | -21.10018 | 33038 ft | 522 kts | 116° |
| 2026-05-06 10:16 | 16.05464 | -21.03003 | 33036 ft | 522 kts | 116° |
| 2026-05-06 10:16 | 16.02913 | -20.95939 | 33035 ft | 521 kts | 116° |
| 2026-05-06 10:17 | 16.00362 | -20.88887 | 33040 ft | 521 kts | 116° |
| 2026-05-06 10:17 | 15.97808 | -20.81833 | 33044 ft | 521 kts | 116° |
| 2026-05-06 10:18 | 15.95255 | -20.74789 | 33041 ft | 520 kts | 116° |
| 2026-05-06 10:18 | 15.92704 | -20.67755 | 33046 ft | 518 kts | 116° |
| 2026-05-06 10:19 | 15.90164 | -20.60768 | 33052 ft | 520 kts | 116° |
| 2026-05-06 10:19 | 15.87616 | -20.53758 | 33043 ft | 519 kts | 116° |
| 2026-05-06 10:20 | 15.85060 | -20.46740 | 33036 ft | 520 kts | 116° |
| 2026-05-06 10:20 | 15.82501 | -20.39720 | 33019 ft | 518 kts | 116° |
| 2026-05-06 10:21 | 15.79942 | -20.32706 | 33026 ft | 520 kts | 116° |
| 2026-05-06 10:21 | 15.77377 | -20.25688 | 33044 ft | 519 kts | 116° |
| 2026-05-06 10:22 | 15.74831 | -20.18727 | 33035 ft | 519 kts | 116° |
| 2026-05-06 10:22 | 15.72679 | -20.12848 | 33033 ft | 519 kts | 116° |
| 2026-05-06 10:23 | 15.70132 | -20.05900 | 33034 ft | 518 kts | 116° |
| 2026-05-06 10:23 | 15.67559 | -19.98915 | 33038 ft | 513 kts | 118° |
| 2026-05-06 10:24 | 15.66088 | -19.95645 | 33015 ft | 489 kts | 123° |
| 2026-05-06 10:24 | 15.64618 | -19.92542 | 32961 ft | 470 kts | 122° |
| 2026-05-06 10:24 | 15.63220 | -19.89550 | 32970 ft | 451 kts | 123° |
| 2026-05-06 10:24 | 15.61888 | -19.86681 | 33003 ft | 432 kts | 123° |
| 2026-05-06 10:25 | 15.60608 | -19.83919 | 33024 ft | 418 kts | 123° |
| 2026-05-06 10:25 | 15.59346 | -19.81201 | 33032 ft | 421 kts | 123° |
| 2026-05-06 10:25 | 15.56777 | -19.75654 | 33065 ft | 431 kts | 123° |
| 2026-05-06 10:26 | 15.54183 | -19.70022 | 33087 ft | 433 kts | 122° |
| 2026-05-06 10:26 | 15.51582 | -19.64372 | 33046 ft | 433 kts | 122° |
| 2026-05-06 10:27 | 15.48988 | -19.58740 | 33031 ft | 432 kts | 123° |
| 2026-05-06 10:27 | 15.46414 | -19.53158 | 33023 ft | 432 kts | 122° |
| 2026-05-06 10:28 | 15.43823 | -19.47541 | 33033 ft | 432 kts | 122° |
| 2026-05-06 10:28 | 15.41233 | -19.41933 | 33029 ft | 431 kts | 122° |
| 2026-05-06 10:29 | 15.38640 | -19.36321 | 33030 ft | 431 kts | 122° |
| 2026-05-06 10:29 | 15.36066 | -19.30756 | 33028 ft | 430 kts | 122° |
| 2026-05-06 10:30 | 15.33477 | -19.25164 | 33029 ft | 430 kts | 122° |
| 2026-05-06 10:30 | 15.30887 | -19.19572 | 33030 ft | 430 kts | 123° |
| 2026-05-06 10:31 | 15.28299 | -19.13990 | 33031 ft | 430 kts | 122° |
| 2026-05-06 10:31 | 15.25710 | -19.08411 | 33029 ft | 430 kts | 122° |
| 2026-05-06 10:32 | 15.23121 | -19.02833 | 33029 ft | 430 kts | 122° |
| 2026-05-06 10:32 | 15.20528 | -18.97253 | 33027 ft | 429 kts | 122° |
| 2026-05-06 10:33 | 15.17938 | -18.91683 | 33028 ft | 429 kts | 122° |
| 2026-05-06 10:33 | 15.16630 | -18.88878 | 32577 ft | 436 kts | 122° |
| 2026-05-06 10:33 | 15.15325 | -18.86068 | 32382 ft | 431 kts | 122° |
| 2026-05-06 10:34 | 15.14030 | -18.83293 | 31734 ft | 437 kts | 122° |
| 2026-05-06 10:34 | 15.12706 | -18.80451 | 31188 ft | 436 kts | 121° |
| 2026-05-06 10:34 | 15.11387 | -18.77622 | 30573 ft | 437 kts | 121° |
| 2026-05-06 10:34 | 15.10069 | -18.74796 | 29998 ft | 436 kts | 121° |
| 2026-05-06 10:35 | 15.08755 | -18.71977 | 29414 ft | 433 kts | 120° |
| 2026-05-06 10:35 | 15.07452 | -18.69184 | 28837 ft | 430 kts | 120° |
| 2026-05-06 10:35 | 15.06157 | -18.66409 | 28285 ft | 426 kts | 120° |
| 2026-05-06 10:35 | 15.04872 | -18.63658 | 27709 ft | 424 kts | 120° |
| 2026-05-06 10:36 | 15.03593 | -18.60920 | 27158 ft | 421 kts | 120° |
| 2026-05-06 10:36 | 15.02339 | -18.58237 | 26602 ft | 418 kts | 120° |
| 2026-05-06 10:36 | 15.01073 | -18.55529 | 26056 ft | 415 kts | 120° |
| 2026-05-06 10:36 | 14.99818 | -18.52848 | 25492 ft | 413 kts | 119° |
| 2026-05-06 10:37 | 14.98570 | -18.50180 | 24951 ft | 411 kts | 119° |
| 2026-05-06 10:37 | 14.97328 | -18.47527 | 24387 ft | 409 kts | 119° |
| 2026-05-06 10:37 | 14.96093 | -18.44889 | 23872 ft | 406 kts | 119° |
| 2026-05-06 10:37 | 14.94863 | -18.42266 | 23276 ft | 405 kts | 118° |
| 2026-05-06 10:38 | 14.93643 | -18.39662 | 22768 ft | 399 kts | 118° |
| 2026-05-06 10:38 | 14.92440 | -18.37093 | 22236 ft | 395 kts | 118° |
| 2026-05-06 10:38 | 14.91246 | -18.34548 | 21723 ft | 391 kts | 118° |
| 2026-05-06 10:38 | 14.90064 | -18.32029 | 21206 ft | 387 kts | 118° |
| 2026-05-06 10:39 | 14.88897 | -18.29540 | 20699 ft | 383 kts | 118° |
| 2026-05-06 10:39 | 14.87734 | -18.27063 | 20194 ft | 380 kts | 118° |
| 2026-05-06 10:39 | 14.86583 | -18.24612 | 19689 ft | 377 kts | 118° |
| 2026-05-06 10:39 | 14.85441 | -18.22183 | 19187 ft | 374 kts | 118° |
| 2026-05-06 10:40 | 14.84309 | -18.19773 | 18690 ft | 372 kts | 118° |
| 2026-05-06 10:40 | 14.83183 | -18.17377 | 18188 ft | 369 kts | 118° |
| 2026-05-06 10:40 | 14.82082 | -18.15034 | 17710 ft | 364 kts | 118° |
| 2026-05-06 10:40 | 14.80981 | -18.12694 | 17233 ft | 360 kts | 118° |
| 2026-05-06 10:41 | 14.79896 | -18.10387 | 16759 ft | 355 kts | 118° |
| 2026-05-06 10:41 | 14.78817 | -18.08095 | 16275 ft | 352 kts | 118° |
| 2026-05-06 10:41 | 14.77752 | -18.05833 | 15818 ft | 348 kts | 118° |
| 2026-05-06 10:41 | 14.76697 | -18.03593 | 15362 ft | 345 kts | 118° |
| 2026-05-06 10:42 | 14.75652 | -18.01374 | 14898 ft | 342 kts | 118° |
| 2026-05-06 10:42 | 14.74617 | -17.99179 | 14453 ft | 339 kts | 118° |
| 2026-05-06 10:42 | 14.73589 | -17.97001 | 14008 ft | 336 kts | 118° |
| 2026-05-06 10:42 | 14.72569 | -17.94840 | 13527 ft | 333 kts | 118° |
| 2026-05-06 10:43 | 14.71561 | -17.92699 | 13109 ft | 328 kts | 118° |
| 2026-05-06 10:43 | 14.70564 | -17.90586 | 12663 ft | 325 kts | 117° |
| 2026-05-06 10:43 | 14.69597 | -17.88534 | 12261 ft | 320 kts | 117° |
| 2026-05-06 10:44 | 14.67663 | -17.84440 | 11412 ft | 313 kts | 117° |
| 2026-05-06 10:44 | 14.66712 | -17.82425 | 10998 ft | 310 kts | 117° |
| 2026-05-06 10:44 | 14.65770 | -17.80433 | 10571 ft | 308 kts | 117° |
| 2026-05-06 10:44 | 14.64835 | -17.78456 | 10166 ft | 304 kts | 117° |
| 2026-05-06 10:45 | 14.63908 | -17.76496 | 9742 ft | 302 kts | 117° |
| 2026-05-06 10:45 | 14.62990 | -17.74553 | 9347 ft | 298 kts | 117° |
| 2026-05-06 10:45 | 14.62085 | -17.72643 | 8979 ft | 294 kts | 117° |
| 2026-05-06 10:45 | 14.61191 | -17.70754 | 8575 ft | 292 kts | 117° |
| 2026-05-06 10:46 | 14.60304 | -17.68881 | 8187 ft | 289 kts | 116° |
| 2026-05-06 10:46 | 14.59424 | -17.67020 | 7807 ft | 287 kts | 116° |
| 2026-05-06 10:46 | 14.58561 | -17.65199 | 7421 ft | 286 kts | 116° |
| 2026-05-06 10:46 | 14.57692 | -17.63363 | 7049 ft | 284 kts | 116° |
| 2026-05-06 10:47 | 14.56825 | -17.61531 | 6677 ft | 283 kts | 116° |
| 2026-05-06 10:47 | 14.55960 | -17.59705 | 6285 ft | 283 kts | 116° |
| 2026-05-06 10:47 | 14.55101 | -17.57891 | 5919 ft | 279 kts | 116° |
| 2026-05-06 10:47 | 14.54268 | -17.56133 | 5583 ft | 264 kts | 116° |
| 2026-05-06 10:48 | 14.53490 | -17.54489 | 5198 ft | 247 kts | 115° |
| 2026-05-06 10:48 | 14.53148 | -17.52822 | 4822 ft | 233 kts | 86° |
| 2026-05-06 10:48 | 14.53389 | -17.51235 | 4541 ft | 216 kts | 79° |
| 2026-05-06 10:48 | 14.53584 | -17.49747 | 4266 ft | 203 kts | 81° |
| 2026-05-06 10:49 | 14.53767 | -17.48339 | 4011 ft | 192 kts | 79° |
| 2026-05-06 10:49 | 14.54028 | -17.47027 | 3766 ft | 180 kts | 67° |
| 2026-05-06 10:49 | 14.54675 | -17.45982 | 3526 ft | 168 kts | 40° |
| 2026-05-06 10:49 | 14.55637 | -17.45397 | 3323 ft | 156 kts | 15° |
| 2026-05-06 10:50 | 14.56686 | -17.45284 | 3110 ft | 150 kts | 354° |
| 2026-05-06 10:50 | 14.57684 | -17.45463 | 2936 ft | 145 kts | 349° |
| 2026-05-06 10:50 | 14.58668 | -17.45660 | 2761 ft | 143 kts | 349° |
| 2026-05-06 10:50 | 14.59655 | -17.45837 | 2602 ft | 145 kts | 351° |
| 2026-05-06 10:51 | 14.60643 | -17.46017 | 2448 ft | 144 kts | 349° |
| 2026-05-06 10:51 | 14.61625 | -17.46195 | 2255 ft | 141 kts | 351° |
| 2026-05-06 10:51 | 14.62608 | -17.46364 | 2055 ft | 145 kts | 352° |
| 2026-05-06 10:51 | 14.63629 | -17.46508 | 1855 ft | 150 kts | 354° |
| 2026-05-06 10:52 | 14.64661 | -17.46641 | 1651 ft | 149 kts | 353° |
| 2026-05-06 10:52 | 14.65687 | -17.46775 | 1438 ft | 147 kts | 353° |
| 2026-05-06 10:52 | 14.66711 | -17.46908 | 1206 ft | 148 kts | 354° |
| 2026-05-06 10:52 | 14.67738 | -17.47045 | 1015 ft | 149 kts | 354° |
| 2026-05-06 10:53 | 14.68747 | -17.47181 | 862 ft | 144 kts | 353° |
| 2026-05-06 10:53 | 14.69764 | -17.47314 | 772 ft | 148 kts | 352° |
| 2026-05-06 10:53 | 14.70797 | -17.47455 | 557 ft | 153 kts | 353° |
| 2026-05-06 10:53 | 14.71864 | -17.47591 | 294 ft | 153 kts | 353° |
| 2026-05-06 10:54 | 14.72878 | -17.47731 | 94 ft | 140 kts | 352° |
| 2026-05-06 10:54 | 14.73722 | -17.47843 | 83 ft | 102 kts | 352° |
| 2026-05-06 10:54 | 14.74280 | -17.47917 | 83 ft | 61 kts | 352° |
| 2026-05-06 10:54 | 14.74629 | -17.47965 | 81 ft | 43 kts | 352° |
| 2026-05-06 10:55 | 14.74887 | -17.47998 | 78 ft | 26 kts | 352° |
| 2026-05-06 10:55 | 14.75064 | -17.48023 | 77 ft | 25 kts | 352° |
| 2026-05-06 10:55 | 14.75162 | -17.48070 | 76 ft | 13 kts | 307° |
| 2026-05-06 10:55 | 14.75202 | -17.48051 | 73 ft | 8 kts | 99° |
| 2026-05-06 10:56 | 14.75162 | -17.48034 | 76 ft | 7 kts | 173° |
| 2026-05-06 10:56 | 14.75109 | -17.48029 | 77 ft | 10 kts | 174° |
| 2026-05-06 10:56 | 14.75033 | -17.48020 | 77 ft | 12 kts | 173° |
| 2026-05-06 10:56 | 14.74936 | -17.48007 | 70 ft | 17 kts | 173° |
| 2026-05-06 10:57 | 14.74816 | -17.47990 | 79 ft | 19 kts | 172° |
| 2026-05-06 10:57 | 14.74664 | -17.47970 | 84 ft | 25 kts | 173° |
| 2026-05-06 10:57 | 14.74487 | -17.47946 | 80 ft | 26 kts | 172° |
| 2026-05-06 10:57 | 14.74382 | -17.47963 | 81 ft | 14 kts | 238° |
| 2026-05-06 10:58 | 14.74357 | -17.48070 | 80 ft | 17 kts | 259° |
| 2026-05-06 10:58 | 14.74334 | -17.48193 | 82 ft | 18 kts | 259° |
| 2026-05-06 10:58 | 14.74308 | -17.48327 | 81 ft | 20 kts | 258° |
| 2026-05-06 10:58 | 14.74281 | -17.48469 | 79 ft | 21 kts | 260° |
| 2026-05-06 10:59 | 14.74279 | -17.48617 | 78 ft | 19 kts | 285° |
| 2026-05-06 10:59 | 14.74313 | -17.48738 | 73 ft | 16 kts | 289° |
| 2026-05-06 10:59 | 14.74312 | -17.48795 | 74 ft | 6 kts | 227° |
| 2026-05-06 10:59 | 14.74284 | -17.48806 | 76 ft | 3 kts | 196° |
| 2026-05-06 11:00 | 14.74272 | -17.48808 | 73 ft | 0 kts | 185° |